Погода Барра ду Бугресна 2 недели

Мату-Гросу, Бразилия

15 - 28 июля
  • 15июля
    Сегодня
    +12°
    +26°
    Ясно и безоблачно
    ВремяПогодаТемператураВлажностьДавлениеВетер, м/сВероятность осадков
    02:00Ясно и безоблачно+12°C88 %752 мм1.5 м/с5 %
    05:00Ясно и безоблачно+11°C89 %752 мм1.8 м/с5 %
    08:00Ясно и безоблачно+15°C72 %754 мм1.5 м/с5 %
    11:00Ясно и безоблачно+21°C51 %754 мм1.9 м/с5 %
    14:00Ясно и безоблачно+26°C45 %751 мм2.5 м/с5 %
    17:00Ясно и безоблачно+24°C54 %751 мм2.3 м/с5 %
    20:00Ясно и безоблачно+18°C70 %752 мм2.0 м/с5 %
    23:00Ясно и безоблачно+16°C79 %752 мм1.7 м/с5 %
  • 16июля
    Вторник
    +14°
    +29°
    Ясно и безоблачно
    ВремяПогодаТемператураВлажностьДавлениеВетер, м/сВероятность осадков
    02:00Ясно и безоблачно+14°C87 %751 мм1.5 м/с5 %
    05:00Ясно и безоблачно+13°C91 %752 мм1.4 м/с5 %
    08:00Небольшая облачность+16°C76 %753 мм1.2 м/с5 %
    11:00Небольшая облачность+23°C53 %753 мм1.0 м/с5 %
    14:00Ясно и безоблачно+28°C44 %750 мм0.9 м/с5 %
    17:00Небольшая облачность+26°C61 %750 мм1.3 м/с5 %
    20:00Ясно и безоблачно+19°C75 %751 мм2.1 м/с5 %
    23:00Ясно и безоблачно+17°C85 %751 мм1.8 м/с5 %
  • 17июля
    Среда
    +14°
    +32°
    Практически безоблачно
    ВремяПогодаТемператураВлажностьДавлениеВетер, м/сВероятность осадков
    02:00Ясно и безоблачно+16°C91 %751 мм0.6 м/с5 %
    05:00Ясно и безоблачно+14°C94 %751 мм0.7 м/с5 %
    08:00Ясно и безоблачно+18°C80 %753 мм0.3 м/с5 %
    11:00Небольшая облачность+26°C48 %753 мм1.1 м/с5 %
    14:00Практически безоблачно+31°C35 %750 мм0.4 м/с5 %
    17:00Практически безоблачно+29°C49 %749 мм1.3 м/с5 %
    20:00Небольшая облачность+21°C66 %750 мм1.6 м/с5 %
    23:00Небольшая облачность+19°C76 %749 мм1.4 м/с5 %
  • 18июля
    Четверг
    +17°
    +33°
    Ясно и безоблачно
    ВремяПогодаТемператураВлажностьДавлениеВетер, м/сВероятность осадков
    02:00Практически безоблачно+17°C81 %748 мм0.3 м/с5 %
    05:00Ясно и безоблачно+15°C89 %748 мм0.9 м/с5 %
    08:00Ясно и безоблачно+19°C75 %750 мм0.9 м/с5 %
    11:00Ясно и безоблачно+29°C41 %750 мм1.2 м/с5 %
    14:00Ясно и безоблачно+33°C27 %748 мм2.1 м/с5 %
    17:00Ясно и безоблачно+31°C46 %747 мм1.5 м/с5 %
    20:00Ясно и безоблачно+21°C59 %748 мм1.3 м/с5 %
    23:00Ясно и безоблачно+20°C68 %748 мм1.9 м/с5 %
  • 19июля
    Пятница
    +16°
    +34°
    Ясно и безоблачно
    ВремяПогодаТемператураВлажностьДавлениеВетер, м/сВероятность осадков
    02:00Ясно и безоблачно+18°C62 %747 мм2.2 м/с5 %
    05:00Ясно и безоблачно+18°C62 %748 мм2.5 м/с5 %
    08:00Ясно и безоблачно+20°C57 %750 мм2.5 м/с5 %
    11:00Ясно и безоблачно+30°C33 %750 мм2.4 м/с5 %
    14:00Ясно и безоблачно+33°C21 %748 мм2.5 м/с5 %
    17:00Ясно и безоблачно+31°C34 %747 мм1.8 м/с5 %
    20:00Ясно и безоблачно+23°C38 %748 мм2.5 м/с5 %
    23:00Ясно и безоблачно+21°C44 %749 мм2.6 м/с5 %
Мы используем cookies
Соглашаюсь